createdAt,value
2023-01-28T00:00:55.403Z,99.90
2023-01-28T00:03:22.483Z,99.90
2023-01-28T00:05:49.487Z,99.90
2023-01-28T00:08:16.375Z,99.90
2023-01-28T00:10:43.319Z,99.90
2023-01-28T00:13:16.267Z,99.90
2023-01-28T00:15:43.335Z,99.90
2023-01-28T00:18:10.454Z,99.90
2023-01-28T00:20:37.510Z,99.90
2023-01-28T00:23:04.377Z,99.90
2023-01-28T00:25:31.684Z,99.90
2023-01-28T00:27:58.745Z,99.90
2023-01-28T00:30:25.630Z,99.90
2023-01-28T00:32:55.681Z,99.90
2023-01-28T00:35:22.715Z,99.90
2023-01-28T00:37:49.606Z,99.90
2023-01-28T00:40:16.741Z,99.90
2023-01-28T00:42:43.601Z,99.90
2023-01-28T00:45:10.901Z,99.90
2023-01-28T00:47:38.058Z,99.90
2023-01-28T00:50:06.229Z,99.90
2023-01-28T00:52:33.132Z,99.90
2023-01-28T00:55:00.056Z,99.90
2023-01-28T00:57:27.084Z,99.90
2023-01-28T00:59:53.965Z,99.90
2023-01-28T01:02:20.829Z,99.90
2023-01-28T01:04:58.279Z,99.90
2023-01-28T01:07:34.813Z,99.90
2023-01-28T01:10:02.578Z,99.90
2023-01-28T01:12:30.080Z,99.90
2023-01-28T01:14:57.901Z,99.90
2023-01-28T01:17:25.389Z,99.90
2023-01-28T01:19:52.335Z,99.90
2023-01-28T01:22:19.200Z,99.90
2023-01-28T01:24:48.606Z,99.90
2023-01-28T01:27:15.601Z,99.90
2023-01-28T01:29:42.474Z,99.90
2023-01-28T01:32:09.451Z,99.90
2023-01-28T01:34:36.382Z,99.90
2023-01-28T01:37:06.179Z,99.90
2023-01-28T01:39:33.033Z,99.90
2023-01-28T01:42:01.611Z,99.90
2023-01-28T01:45:14.406Z,99.90
2023-01-28T01:48:33.880Z,99.90
2023-01-28T01:51:16.763Z,99.90
2023-01-28T01:53:51.680Z,99.90
2023-01-28T01:56:29.949Z,99.90
2023-01-28T01:58:58.601Z,99.90
2023-01-28T02:01:32.214Z,99.90
2023-01-28T02:04:15.773Z,99.90
2023-01-28T02:06:42.952Z,99.90
2023-01-28T02:09:36.010Z,99.90
2023-01-28T02:12:17.665Z,99.90
2023-01-28T02:15:02.475Z,99.90
2023-01-28T02:17:30.734Z,99.90
2023-01-28T02:20:13.978Z,99.90
2023-01-28T02:23:42.286Z,99.90
2023-01-28T02:26:55.644Z,99.90
2023-01-28T02:29:55.009Z,99.90
2023-01-28T02:32:39.349Z,99.90
2023-01-28T02:35:32.658Z,99.90
2023-01-28T02:38:13.245Z,99.90
2023-01-28T02:41:02.360Z,99.90
2023-01-28T02:43:46.725Z,99.90
2023-01-28T02:46:55.988Z,99.90
2023-01-28T02:49:39.080Z,99.90
2023-01-28T02:53:05.235Z,99.90
2023-01-28T02:55:56.190Z,99.90
2023-01-28T02:58:56.850Z,99.90
2023-01-28T03:01:38.840Z,99.90
2023-01-28T03:04:23.651Z,99.90
2023-01-28T03:07:04.093Z,99.90
2023-01-28T03:09:32.548Z,99.90
2023-01-28T03:12:30.523Z,99.90
2023-01-28T03:15:40.007Z,99.90
2023-01-28T03:18:43.982Z,99.90
2023-01-28T03:21:53.647Z,99.90
2023-01-28T03:24:59.289Z,99.90
2023-01-28T03:28:12.751Z,99.90
2023-01-28T03:31:12.615Z,99.90
2023-01-28T03:34:00.765Z,99.90
2023-01-28T03:36:48.199Z,99.90
2023-01-28T03:39:16.543Z,99.90
2023-01-28T03:41:59.808Z,99.90
2023-01-28T03:44:46.743Z,99.90
2023-01-28T03:47:14.970Z,99.90
2023-01-28T03:49:49.897Z,99.90
2023-01-28T03:52:21.961Z,99.90
2023-01-28T03:54:50.122Z,99.90
2023-01-28T03:57:21.460Z,99.90
2023-01-28T03:59:52.667Z,99.90
2023-01-28T04:02:23.051Z,99.90
2023-01-28T04:04:50.290Z,99.90
2023-01-28T04:07:17.890Z,99.90
2023-01-28T04:09:45.075Z,99.90
2023-01-28T04:12:12.328Z,99.90
2023-01-28T04:14:40.030Z,99.90
2023-01-28T04:17:10.501Z,99.90
2023-01-28T04:19:38.240Z,99.90
2023-01-28T04:22:11.060Z,99.90
2023-01-28T04:24:37.937Z,99.90
2023-01-28T04:27:04.877Z,99.90
2023-01-28T04:29:31.961Z,99.90
2023-01-28T04:31:58.809Z,99.90
2023-01-28T04:34:25.729Z,99.90
2023-01-28T04:36:52.602Z,99.90
2023-01-28T04:39:19.449Z,99.90
2023-01-28T04:41:46.341Z,99.90
2023-01-28T04:44:13.656Z,99.90
2023-01-28T04:46:40.590Z,99.90
2023-01-28T04:49:07.534Z,99.90
2023-01-28T04:51:34.461Z,99.90
2023-01-28T04:54:01.334Z,99.90
2023-01-28T04:56:28.242Z,99.90
2023-01-28T04:58:55.118Z,99.90
2023-01-28T05:01:22.050Z,99.90
2023-01-28T05:03:48.925Z,99.90
2023-01-28T05:06:15.974Z,99.90
2023-01-28T05:08:43.068Z,99.90
2023-01-28T05:11:09.974Z,99.90
2023-01-28T05:13:36.856Z,99.90
2023-01-28T05:16:04.052Z,99.90
2023-01-28T05:18:31.427Z,99.90
2023-01-28T05:20:58.759Z,99.90
2023-01-28T05:23:25.625Z,99.90
2023-01-28T05:25:52.506Z,99.90
2023-01-28T05:28:19.397Z,99.90
2023-01-28T05:30:46.302Z,99.90
2023-01-28T05:33:13.167Z,99.90
2023-01-28T05:35:40.078Z,99.90
2023-01-28T05:38:06.981Z,99.90
2023-01-28T05:40:34.144Z,99.90
2023-01-28T05:43:01.123Z,99.90
2023-01-28T05:45:28.007Z,99.90
2023-01-28T05:47:54.928Z,99.90
2023-01-28T05:50:21.863Z,99.90
2023-01-28T05:52:48.757Z,99.90
2023-01-28T05:55:15.825Z,99.90
2023-01-28T05:57:44.396Z,99.90
2023-01-28T06:00:13.372Z,99.90
2023-01-28T06:02:40.441Z,99.90
2023-01-28T06:05:08.505Z,99.90
2023-01-28T06:07:35.942Z,99.90
2023-01-28T06:10:03.110Z,99.90
2023-01-28T06:12:29.971Z,99.90
2023-01-28T06:14:56.863Z,99.90
2023-01-28T06:17:23.771Z,99.90
2023-01-28T06:19:50.708Z,99.90
2023-01-28T06:22:17.601Z,99.90
2023-01-28T06:24:44.569Z,99.90
2023-01-28T06:27:11.503Z,99.90
2023-01-28T06:29:38.881Z,99.90
2023-01-28T06:32:07.189Z,99.90
2023-01-28T06:34:34.144Z,99.90
2023-01-28T06:37:01.094Z,99.90
2023-01-28T06:39:31.683Z,99.90
2023-01-28T06:41:59.164Z,99.90
2023-01-28T06:44:26.336Z,99.90
2023-01-28T06:46:53.209Z,99.90
2023-01-28T06:49:21.309Z,99.90
2023-01-28T06:51:48.668Z,99.90
2023-01-28T06:54:16.217Z,99.90
2023-01-28T06:56:43.120Z,99.90
2023-01-28T06:59:10.244Z,99.90
2023-01-28T07:01:37.201Z,99.90
2023-01-28T07:04:04.725Z,99.90
2023-01-28T07:06:31.693Z,99.90
2023-01-28T07:08:58.615Z,99.90
2023-01-28T07:11:25.644Z,99.90
2023-01-28T07:13:52.551Z,99.90
2023-01-28T07:16:19.549Z,99.90
2023-01-28T07:18:46.449Z,99.90
2023-01-28T07:21:13.351Z,99.90
2023-01-28T07:23:40.261Z,99.90
2023-01-28T07:26:07.289Z,99.90
2023-01-28T07:28:34.415Z,99.90
2023-01-28T07:31:01.422Z,99.90
2023-01-28T07:33:28.437Z,99.90
2023-01-28T07:35:55.305Z,99.90
2023-01-28T07:38:22.253Z,99.90
2023-01-28T07:40:49.261Z,99.90
2023-01-28T07:43:16.297Z,99.90
2023-01-28T07:45:43.229Z,99.90
2023-01-28T07:48:13.948Z,99.90
2023-01-28T07:50:40.978Z,99.90
2023-01-28T07:53:12.253Z,99.90
2023-01-28T07:55:39.959Z,99.90
2023-01-28T07:58:11.251Z,99.90
2023-01-28T08:00:39.593Z,99.90
2023-01-28T08:03:16.851Z,99.90
2023-01-28T08:05:49.345Z,99.90
2023-01-28T08:08:17.380Z,99.90
2023-01-28T08:10:45.337Z,99.90
2023-01-28T08:13:15.364Z,99.90
2023-01-28T08:15:42.758Z,99.90
2023-01-28T08:18:13.809Z,99.90
2023-01-28T08:20:43.453Z,99.90
2023-01-28T08:23:20.767Z,99.90
2023-01-28T08:25:49.034Z,99.90
2023-01-28T08:28:17.493Z,99.90
2023-01-28T08:30:45.478Z,99.90
2023-01-28T08:33:15.672Z,99.90
2023-01-28T08:35:42.797Z,99.90
2023-01-28T08:38:13.753Z,99.90
2023-01-28T08:40:40.836Z,99.90
2023-01-28T08:43:07.742Z,99.90
2023-01-28T08:45:34.697Z,99.90
2023-01-28T08:48:06.546Z,99.90
2023-01-28T08:50:40.241Z,99.90
2023-01-28T08:53:13.974Z,99.90
2023-01-28T08:55:41.443Z,99.90
2023-01-28T08:58:17.414Z,99.90
2023-01-28T09:03:48.597Z,99.90
2023-01-28T09:06:15.503Z,99.90
2023-01-28T09:08:42.411Z,99.90
2023-01-28T09:11:09.334Z,99.90
2023-01-28T09:13:36.207Z,99.90
2023-01-28T09:16:06.523Z,99.90
2023-01-28T09:18:33.467Z,99.90
2023-01-28T09:21:00.451Z,99.90
2023-01-28T09:23:27.294Z,99.90
2023-01-28T09:26:01.187Z,99.90
2023-01-28T09:28:29.774Z,99.90
2023-01-28T09:31:07.601Z,99.90
2023-01-28T09:33:37.792Z,99.90
2023-01-28T09:36:10.003Z,99.90
2023-01-28T09:38:37.011Z,99.90
2023-01-28T09:41:33.101Z,99.90
2023-01-28T09:44:30.078Z,99.90
2023-01-28T09:47:05.653Z,99.90
2023-01-28T09:49:47.463Z,99.90
2023-01-28T09:52:21.835Z,99.90
2023-01-28T09:55:00.974Z,99.90
2023-01-28T09:57:42.778Z,99.90
2023-01-28T10:00:22.626Z,99.90
2023-01-28T10:03:32.462Z,99.90
2023-01-28T10:06:50.413Z,99.90
2023-01-28T10:09:56.197Z,99.90
2023-01-28T10:12:56.884Z,99.90
2023-01-28T10:15:58.778Z,99.90
2023-01-28T10:19:00.789Z,99.90
2023-01-28T10:21:43.987Z,99.90
2023-01-28T10:24:38.860Z,99.90
2023-01-28T10:27:28.655Z,99.90
2023-01-28T10:29:58.410Z,99.90
2023-01-28T10:32:46.985Z,99.90
2023-01-28T10:35:14.200Z,99.90
2023-01-28T10:37:41.255Z,99.90
2023-01-28T10:40:18.204Z,99.90
2023-01-28T10:42:46.035Z,99.90
2023-01-28T10:45:31.014Z,99.90
2023-01-28T10:48:17.302Z,99.90
2023-01-28T10:51:06.678Z,99.90
2023-01-28T10:53:43.481Z,99.90
2023-01-28T10:56:32.390Z,99.90
2023-01-28T10:59:25.447Z,99.90
2023-01-28T11:02:04.990Z,99.90
2023-01-28T11:04:36.574Z,99.90
2023-01-28T11:07:25.407Z,99.90
2023-01-28T11:09:53.138Z,99.90
2023-01-28T11:12:28.620Z,99.90
2023-01-28T11:15:06.011Z,99.90
2023-01-28T11:17:39.206Z,99.90
2023-01-28T11:20:28.089Z,99.90
2023-01-28T11:22:56.671Z,99.90
2023-01-28T11:25:32.384Z,99.90
2023-01-28T11:28:05.418Z,99.90
2023-01-28T11:30:40.758Z,99.90
2023-01-28T11:33:32.718Z,99.90
2023-01-28T11:36:31.832Z,99.90
2023-01-28T11:39:18.167Z,99.90
2023-01-28T11:41:47.173Z,99.90
2023-01-28T11:44:26.841Z,99.90
2023-01-28T11:47:32.727Z,99.90
2023-01-28T11:50:31.451Z,99.90
2023-01-28T11:53:53.301Z,99.90
2023-01-28T11:56:53.471Z,99.90
2023-01-28T12:00:32.715Z,99.90
2023-01-28T12:03:47.723Z,99.90
2023-01-28T12:07:01.409Z,99.90
2023-01-28T12:10:09.715Z,99.90
2023-01-28T12:12:57.560Z,99.90
2023-01-28T12:15:58.519Z,99.90
2023-01-28T12:18:50.637Z,99.90
2023-01-28T12:21:51.866Z,99.90
2023-01-28T12:25:19.015Z,99.90
2023-01-28T12:27:58.999Z,99.90
2023-01-28T12:30:57.753Z,99.90
2023-01-28T12:34:23.588Z,99.90
2023-01-28T12:37:37.040Z,99.90
2023-01-28T12:41:04.787Z,99.90
2023-01-28T12:44:02.308Z,99.90
2023-01-28T12:47:10.091Z,99.90
2023-01-28T12:49:48.124Z,99.90
2023-01-28T12:52:40.798Z,99.90
2023-01-28T12:55:47.308Z,99.90
2023-01-28T12:58:29.454Z,99.90
2023-01-28T13:01:08.876Z,99.90
2023-01-28T13:04:13.607Z,99.90
2023-01-28T13:07:04.155Z,99.90
2023-01-28T13:09:39.124Z,99.90
2023-01-28T13:12:07.171Z,99.90
2023-01-28T13:14:35.517Z,99.90
2023-01-28T13:17:31.441Z,99.90
2023-01-28T13:20:00.729Z,99.90
2023-01-28T13:22:36.357Z,99.90
2023-01-28T13:25:27.933Z,99.90
2023-01-28T13:28:06.630Z,99.90
2023-01-28T13:30:49.559Z,99.90
2023-01-28T13:33:38.917Z,99.90
2023-01-28T13:36:17.956Z,99.90
2023-01-28T13:38:46.561Z,99.80
2023-01-28T13:41:13.534Z,99.90
2023-01-28T13:43:42.566Z,99.40
2023-01-28T13:46:27.457Z,99.20
2023-01-28T13:48:59.466Z,99.00
2023-01-28T13:51:38.561Z,98.90
2023-01-28T13:54:23.674Z,98.70
2023-01-28T13:56:59.415Z,98.90
2023-01-28T14:00:28.513Z,98.80
2023-01-28T14:03:20.948Z,98.70
2023-01-28T14:06:28.382Z,98.60
2023-01-28T14:09:36.748Z,98.60
2023-01-28T14:12:50.102Z,98.50
2023-01-28T14:15:56.238Z,98.60
2023-01-28T14:18:35.088Z,98.50
2023-01-28T14:21:12.576Z,98.70
2023-01-28T14:23:54.647Z,98.60
2023-01-28T14:26:45.051Z,98.60
2023-01-28T14:30:00.643Z,98.60
2023-01-28T14:32:32.108Z,98.60
2023-01-28T14:35:09.745Z,98.50
2023-01-28T14:37:38.007Z,98.80
2023-01-28T14:40:15.038Z,98.70
2023-01-28T14:42:55.022Z,98.40
2023-01-28T14:45:49.085Z,98.20
2023-01-28T14:48:39.296Z,98.10
2023-01-28T14:51:41.516Z,98.10
2023-01-28T14:55:00.848Z,98.20
2023-01-28T14:57:52.747Z,98.30
2023-01-28T15:00:29.752Z,98.30
2023-01-28T15:02:56.838Z,98.10
2023-01-28T15:05:28.600Z,98.00
2023-01-28T15:07:56.827Z,98.00
2023-01-28T15:10:39.081Z,98.20
2023-01-28T15:13:15.195Z,98.20
2023-01-28T15:15:57.859Z,98.30
2023-01-28T15:18:43.764Z,98.30
2023-01-28T15:21:11.365Z,98.40
2023-01-28T15:23:43.713Z,98.60
2023-01-28T15:26:22.185Z,98.60
2023-01-28T15:28:51.653Z,98.70
2023-01-28T15:31:35.316Z,98.60
2023-01-28T15:34:17.813Z,98.50
2023-01-28T15:36:47.540Z,98.60
2023-01-28T15:39:24.913Z,98.40
2023-01-28T15:42:04.328Z,98.30
2023-01-28T15:44:43.800Z,98.50
2023-01-28T15:47:35.070Z,98.50
2023-01-28T15:50:14.791Z,98.50
2023-01-28T15:52:45.274Z,98.60
2023-01-28T15:55:37.503Z,98.70
2023-01-28T15:58:35.082Z,98.80
2023-01-28T16:01:16.627Z,99.00
2023-01-28T16:03:47.611Z,98.80
2023-01-28T16:06:22.330Z,98.80
2023-01-28T16:09:01.626Z,98.80
2023-01-28T16:11:41.343Z,99.00
2023-01-28T16:14:28.894Z,98.60
2023-01-28T16:16:57.613Z,98.70
2023-01-28T16:19:45.937Z,98.70
2023-01-28T16:22:41.841Z,98.80
2023-01-28T16:25:39.183Z,98.80
2023-01-28T16:28:20.128Z,99.00
2023-01-28T16:30:47.114Z,99.00
2023-01-28T16:33:22.396Z,99.00
2023-01-28T16:36:05.503Z,99.20
2023-01-28T16:38:37.891Z,99.10
2023-01-28T16:41:05.382Z,99.00
2023-01-28T16:46:09.173Z,99.20
2023-01-28T16:48:36.826Z,99.20
2023-01-28T16:51:05.003Z,99.10
2023-01-28T16:53:34.640Z,99.20
2023-01-28T16:56:02.543Z,99.20
2023-01-28T16:58:30.354Z,99.20
2023-01-28T17:00:57.394Z,99.20
2023-01-28T17:03:24.688Z,99.20
2023-01-28T17:05:51.678Z,99.20
2023-01-28T17:08:18.783Z,99.20
2023-01-28T17:10:45.727Z,99.30
2023-01-28T17:13:12.710Z,99.40
2023-01-28T17:15:39.589Z,99.30
2023-01-28T17:18:06.557Z,99.40
2023-01-28T17:20:37.302Z,99.50
2023-01-28T17:23:06.355Z,99.50
2023-01-28T17:25:41.511Z,99.60
2023-01-28T17:28:10.693Z,99.70
2023-01-28T17:30:41.924Z,99.70
2023-01-28T17:33:09.588Z,99.60
2023-01-28T17:35:37.015Z,99.70
2023-01-28T17:38:05.885Z,99.70
2023-01-28T17:40:33.324Z,99.80
2023-01-28T17:43:00.281Z,99.90
2023-01-28T17:45:31.634Z,99.90
2023-01-28T17:47:58.791Z,99.90
2023-01-28T17:50:26.236Z,99.90
2023-01-28T17:52:57.631Z,99.90
2023-01-28T17:55:26.298Z,99.90
2023-01-28T17:57:53.242Z,99.90
2023-01-28T18:00:22.295Z,99.90
2023-01-28T18:02:52.774Z,99.90
2023-01-28T18:05:20.921Z,99.90
2023-01-28T18:07:50.247Z,99.90
2023-01-28T18:10:18.589Z,99.90
2023-01-28T18:12:45.944Z,99.90
2023-01-28T18:15:13.545Z,99.90
2023-01-28T18:17:40.981Z,99.90
2023-01-28T18:20:09.036Z,99.90
2023-01-28T18:22:35.987Z,99.90
2023-01-28T18:25:03.246Z,99.90
2023-01-28T18:27:30.335Z,99.90
2023-01-28T18:29:57.760Z,99.90
2023-01-28T18:32:26.014Z,99.90
2023-01-28T18:34:52.974Z,99.90
2023-01-28T18:37:19.888Z,99.90
2023-01-28T18:39:46.908Z,99.90
2023-01-28T18:42:14.285Z,99.90
2023-01-28T18:44:41.280Z,99.90
2023-01-28T18:47:08.197Z,99.90
2023-01-28T18:49:35.145Z,99.90
2023-01-28T18:52:02.304Z,99.90
2023-01-28T18:54:29.301Z,99.90
2023-01-28T18:56:56.413Z,99.90
2023-01-28T18:59:23.447Z,99.90
2023-01-28T19:01:50.480Z,99.90
2023-01-28T19:04:19.039Z,99.90
2023-01-28T19:06:47.290Z,99.90
2023-01-28T19:09:16.917Z,99.90
2023-01-28T19:11:44.659Z,99.90
2023-01-28T19:14:15.786Z,99.90
2023-01-28T19:16:44.508Z,99.90
2023-01-28T19:19:12.063Z,99.90
2023-01-28T19:21:39.316Z,99.90
2023-01-28T19:24:12.116Z,99.90
2023-01-28T19:26:41.483Z,99.90
2023-01-28T19:29:13.981Z,99.90
2023-01-28T19:31:43.544Z,99.90
2023-01-28T19:34:10.939Z,99.90
2023-01-28T19:36:38.011Z,99.90
2023-01-28T19:39:09.129Z,99.90
2023-01-28T19:41:36.577Z,99.90
2023-01-28T19:44:05.562Z,99.90
2023-01-28T19:46:35.857Z,99.90
2023-01-28T19:49:05.676Z,99.90
2023-01-28T19:51:32.594Z,99.90
2023-01-28T19:53:59.594Z,99.90
2023-01-28T19:56:27.138Z,99.90
2023-01-28T19:58:55.274Z,99.90
2023-01-28T20:01:30.463Z,99.90
2023-01-28T20:04:00.542Z,99.90
2023-01-28T20:06:31.697Z,99.90
2023-01-28T20:09:17.141Z,99.90
2023-01-28T20:11:44.177Z,99.90
2023-01-28T20:14:11.313Z,99.90
2023-01-28T20:16:38.321Z,99.90
2023-01-28T20:19:14.289Z,99.90
2023-01-28T20:21:41.744Z,99.90
2023-01-28T20:24:13.584Z,99.90
2023-01-28T20:26:43.727Z,99.90
2023-01-28T20:29:22.143Z,99.90
2023-01-28T20:32:09.041Z,99.90
2023-01-28T20:34:36.863Z,99.90
2023-01-28T20:37:06.395Z,99.90
2023-01-28T20:39:33.260Z,99.90
2023-01-28T20:42:00.195Z,99.90
2023-01-28T20:44:31.755Z,99.90
2023-01-28T20:46:59.097Z,99.90
2023-01-28T20:49:28.132Z,99.90
2023-01-28T20:51:56.907Z,99.90
2023-01-28T20:54:25.366Z,99.90
2023-01-28T20:56:57.196Z,99.90
2023-01-28T20:59:24.184Z,99.80
2023-01-28T21:01:51.291Z,99.70
2023-01-28T21:04:18.397Z,99.60
2023-01-28T21:06:45.389Z,99.50
2023-01-28T21:09:12.427Z,99.50
2023-01-28T21:11:39.353Z,99.40
2023-01-28T21:14:06.259Z,99.30
2023-01-28T21:16:33.232Z,99.20
2023-01-28T21:19:00.153Z,98.90
2023-01-28T21:21:29.255Z,98.80
2023-01-28T21:24:00.039Z,98.90
2023-01-28T21:26:27.574Z,99.00
2023-01-28T21:28:55.966Z,98.80
2023-01-28T21:31:26.439Z,98.80
2023-01-28T21:33:57.376Z,98.70
2023-01-28T21:36:26.617Z,98.70
2023-01-28T21:39:00.077Z,98.90
2023-01-28T21:41:27.912Z,98.90
2023-01-28T21:43:57.500Z,98.90
2023-01-28T21:46:32.142Z,98.70
2023-01-28T21:49:03.922Z,98.80
2023-01-28T21:51:39.340Z,98.70
2023-01-28T21:54:17.399Z,98.70
2023-01-28T21:56:50.839Z,98.70
2023-01-28T21:59:29.418Z,98.70
2023-01-28T22:02:12.241Z,98.90
2023-01-28T22:04:50.281Z,98.60
2023-01-28T22:07:19.981Z,98.50
2023-01-28T22:09:48.462Z,98.50
2023-01-28T22:12:15.957Z,98.50
2023-01-28T22:14:44.099Z,98.50
2023-01-28T22:17:11.837Z,98.50
2023-01-28T22:19:40.202Z,98.40
2023-01-28T22:22:07.749Z,98.40
2023-01-28T22:24:34.683Z,98.30
2023-01-28T22:27:01.676Z,98.30
2023-01-28T22:29:28.691Z,98.30
2023-01-28T22:31:55.775Z,98.30
2023-01-28T22:34:23.474Z,98.20
2023-01-28T22:36:51.403Z,98.10
2023-01-28T22:39:19.411Z,98.00
2023-01-28T22:41:46.751Z,98.10
2023-01-28T22:44:14.352Z,98.20
2023-01-28T22:46:41.373Z,98.20
2023-01-28T22:49:11.801Z,98.00
2023-01-28T22:51:38.741Z,98.10
2023-01-28T22:54:05.742Z,98.10
2023-01-28T22:56:32.655Z,98.00
2023-01-28T22:59:03.544Z,97.90
2023-01-28T23:01:31.684Z,97.90
2023-01-28T23:03:59.219Z,98.00
2023-01-28T23:06:28.235Z,98.00
2023-01-28T23:08:56.403Z,98.00
2023-01-28T23:11:28.021Z,98.00
2023-01-28T23:14:22.018Z,98.20
2023-01-28T23:17:08.505Z,98.10
2023-01-28T23:19:55.054Z,98.10
2023-01-28T23:22:48.561Z,98.10
2023-01-28T23:25:17.512Z,98.00
2023-01-28T23:27:44.668Z,98.00
2023-01-28T23:30:14.513Z,97.90
2023-01-28T23:32:49.491Z,97.90
2023-01-28T23:35:19.029Z,97.90
2023-01-28T23:37:47.497Z,97.80
2023-01-28T23:40:15.826Z,97.80
2023-01-28T23:42:47.817Z,97.80
2023-01-28T23:45:15.135Z,97.80
2023-01-28T23:47:42.029Z,97.70
2023-01-28T23:50:10.308Z,97.80
2023-01-28T23:52:37.256Z,97.80
2023-01-28T23:55:05.577Z,97.80
2023-01-28T23:57:33.458Z,97.80
